sensor_id;sensor_type;location;lat;lon;timestamp;temperature;humidity
45491;DHT22;31237;45.586;13.782;2023-11-19T00:00:27;7.30;88.20
45491;DHT22;31237;45.586;13.782;2023-11-19T00:02:53;7.30;88.20
45491;DHT22;31237;45.586;13.782;2023-11-19T00:05:18;7.30;88.20
45491;DHT22;31237;45.586;13.782;2023-11-19T00:07:44;7.30;88.20
45491;DHT22;31237;45.586;13.782;2023-11-19T00:10:17;7.30;88.20
45491;DHT22;31237;45.586;13.782;2023-11-19T00:12:47;7.20;88.00
45491;DHT22;31237;45.586;13.782;2023-11-19T00:15:14;7.20;88.00
45491;DHT22;31237;45.586;13.782;2023-11-19T00:17:41;7.20;87.90
45491;DHT22;31237;45.586;13.782;2023-11-19T00:20:14;7.20;87.90
45491;DHT22;31237;45.586;13.782;2023-11-19T00:22:41;7.20;87.90
45491;DHT22;31237;45.586;13.782;2023-11-19T00:25:08;7.20;87.90
45491;DHT22;31237;45.586;13.782;2023-11-19T00:27:34;7.20;87.90
45491;DHT22;31237;45.586;13.782;2023-11-19T00:30:00;7.10;87.90
45491;DHT22;31237;45.586;13.782;2023-11-19T00:32:25;7.10;88.00
45491;DHT22;31237;45.586;13.782;2023-11-19T00:34:51;7.10;88.10
45491;DHT22;31237;45.586;13.782;2023-11-19T00:37:17;7.10;88.20
45491;DHT22;31237;45.586;13.782;2023-11-19T00:39:43;7.00;88.30
45491;DHT22;31237;45.586;13.782;2023-11-19T00:42:09;7.00;88.40
45491;DHT22;31237;45.586;13.782;2023-11-19T00:44:38;6.90;88.40
45491;DHT22;31237;45.586;13.782;2023-11-19T00:47:04;6.90;88.50
45491;DHT22;31237;45.586;13.782;2023-11-19T00:49:31;6.90;88.60
45491;DHT22;31237;45.586;13.782;2023-11-19T00:51:58;6.90;88.70
45491;DHT22;31237;45.586;13.782;2023-11-19T00:54:24;6.90;88.80
45491;DHT22;31237;45.586;13.782;2023-11-19T00:56:54;6.80;88.90
45491;DHT22;31237;45.586;13.782;2023-11-19T00:59:20;6.80;89.00
45491;DHT22;31237;45.586;13.782;2023-11-19T01:01:46;6.80;89.10
45491;DHT22;31237;45.586;13.782;2023-11-19T01:04:15;6.80;89.20
45491;DHT22;31237;45.586;13.782;2023-11-19T01:06:40;6.80;89.30
45491;DHT22;31237;45.586;13.782;2023-11-19T01:09:08;6.80;89.40
45491;DHT22;31237;45.586;13.782;2023-11-19T01:11:34;6.80;89.60
45491;DHT22;31237;45.586;13.782;2023-11-19T01:14:00;6.80;89.70
45491;DHT22;31237;45.586;13.782;2023-11-19T01:16:26;6.80;89.80
45491;DHT22;31237;45.586;13.782;2023-11-19T01:18:52;6.80;90.00
45491;DHT22;31237;45.586;13.782;2023-11-19T01:21:18;6.80;90.40
45491;DHT22;31237;45.586;13.782;2023-11-19T01:23:44;6.80;90.30
45491;DHT22;31237;45.586;13.782;2023-11-19T01:26:12;6.80;90.40
45491;DHT22;31237;45.586;13.782;2023-11-19T01:28:39;6.90;90.60
45491;DHT22;31237;45.586;13.782;2023-11-19T01:31:12;7.00;90.70
45491;DHT22;31237;45.586;13.782;2023-11-19T01:33:40;7.00;90.80
45491;DHT22;31237;45.586;13.782;2023-11-19T01:36:07;7.10;90.80
45491;DHT22;31237;45.586;13.782;2023-11-19T01:38:34;7.10;90.90
45491;DHT22;31237;45.586;13.782;2023-11-19T01:41:00;7.20;91.20
45491;DHT22;31237;45.586;13.782;2023-11-19T01:43:37;7.20;91.20
45491;DHT22;31237;45.586;13.782;2023-11-19T01:46:05;7.30;91.20
45491;DHT22;31237;45.586;13.782;2023-11-19T01:48:34;7.30;91.20
45491;DHT22;31237;45.586;13.782;2023-11-19T01:51:05;7.40;91.30
45491;DHT22;31237;45.586;13.782;2023-11-19T01:53:32;7.40;91.70
45491;DHT22;31237;45.586;13.782;2023-11-19T01:56:00;7.50;91.40
45491;DHT22;31237;45.586;13.782;2023-11-19T01:58:26;7.50;91.50
45491;DHT22;31237;45.586;13.782;2023-11-19T02:00:54;7.50;91.60
45491;DHT22;31237;45.586;13.782;2023-11-19T02:03:21;7.60;91.80
45491;DHT22;31237;45.586;13.782;2023-11-19T02:05:48;7.60;91.70
45491;DHT22;31237;45.586;13.782;2023-11-19T02:08:16;7.60;91.80
45491;DHT22;31237;45.586;13.782;2023-11-19T02:10:42;7.70;91.90
45491;DHT22;31237;45.586;13.782;2023-11-19T02:13:08;7.70;92.00
45491;DHT22;31237;45.586;13.782;2023-11-19T02:15:35;7.70;92.00
45491;DHT22;31237;45.586;13.782;2023-11-19T02:18:21;7.70;92.10
45491;DHT22;31237;45.586;13.782;2023-11-19T02:20:48;7.70;92.10
45491;DHT22;31237;45.586;13.782;2023-11-19T02:23:15;7.70;92.20
45491;DHT22;31237;45.586;13.782;2023-11-19T02:25:41;7.80;92.20
45491;DHT22;31237;45.586;13.782;2023-11-19T02:28:07;7.80;92.20
45491;DHT22;31237;45.586;13.782;2023-11-19T02:30:33;7.80;92.30
45491;DHT22;31237;45.586;13.782;2023-11-19T02:32:59;7.80;92.30
45491;DHT22;31237;45.586;13.782;2023-11-19T02:35:28;7.80;92.40
45491;DHT22;31237;45.586;13.782;2023-11-19T02:37:58;7.80;92.40
45491;DHT22;31237;45.586;13.782;2023-11-19T02:40:24;7.80;92.50
45491;DHT22;31237;45.586;13.782;2023-11-19T02:42:51;7.80;92.50
45491;DHT22;31237;45.586;13.782;2023-11-19T02:45:17;7.90;92.60
45491;DHT22;31237;45.586;13.782;2023-11-19T02:47:43;7.90;92.60
45491;DHT22;31237;45.586;13.782;2023-11-19T02:50:12;7.90;92.60
45491;DHT22;31237;45.586;13.782;2023-11-19T02:52:44;8.00;92.60
45491;DHT22;31237;45.586;13.782;2023-11-19T02:55:11;7.90;92.70
45491;DHT22;31237;45.586;13.782;2023-11-19T02:57:41;8.00;92.70
45491;DHT22;31237;45.586;13.782;2023-11-19T03:00:17;8.00;92.70
45491;DHT22;31237;45.586;13.782;2023-11-19T03:02:46;8.00;92.70
45491;DHT22;31237;45.586;13.782;2023-11-19T03:05:14;8.00;92.80
45491;DHT22;31237;45.586;13.782;2023-11-19T03:07:41;8.10;92.80
45491;DHT22;31237;45.586;13.782;2023-11-19T03:10:10;8.10;92.80
45491;DHT22;31237;45.586;13.782;2023-11-19T03:12:43;8.10;92.80
45491;DHT22;31237;45.586;13.782;2023-11-19T03:15:09;8.20;92.80
45491;DHT22;31237;45.586;13.782;2023-11-19T03:17:38;8.20;92.80
45491;DHT22;31237;45.586;13.782;2023-11-19T03:20:08;8.30;92.80
45491;DHT22;31237;45.586;13.782;2023-11-19T03:22:40;8.30;92.80
45491;DHT22;31237;45.586;13.782;2023-11-19T03:25:10;8.40;92.80
45491;DHT22;31237;45.586;13.782;2023-11-19T03:27:39;8.40;92.70
45491;DHT22;31237;45.586;13.782;2023-11-19T03:30:07;8.40;92.70
45491;DHT22;31237;45.586;13.782;2023-11-19T03:32:35;8.40;92.70
45491;DHT22;31237;45.586;13.782;2023-11-19T03:35:01;8.50;92.70
45491;DHT22;31237;45.586;13.782;2023-11-19T03:37:27;8.50;92.70
45491;DHT22;31237;45.586;13.782;2023-11-19T03:39:57;8.50;92.70
45491;DHT22;31237;45.586;13.782;2023-11-19T03:42:28;8.60;92.60
45491;DHT22;31237;45.586;13.782;2023-11-19T03:44:55;8.60;92.60
45491;DHT22;31237;45.586;13.782;2023-11-19T03:47:21;8.60;92.60
45491;DHT22;31237;45.586;13.782;2023-11-19T03:49:50;8.70;92.60
45491;DHT22;31237;45.586;13.782;2023-11-19T03:52:17;8.70;92.60
45491;DHT22;31237;45.586;13.782;2023-11-19T03:54:43;8.70;92.60
45491;DHT22;31237;45.586;13.782;2023-11-19T03:57:09;8.80;92.60
45491;DHT22;31237;45.586;13.782;2023-11-19T03:59:38;8.80;92.60
45491;DHT22;31237;45.586;13.782;2023-11-19T04:02:04;8.80;92.60
45491;DHT22;31237;45.586;13.782;2023-11-19T04:04:29;8.80;92.60
45491;DHT22;31237;45.586;13.782;2023-11-19T04:06:56;8.90;92.60
45491;DHT22;31237;45.586;13.782;2023-11-19T04:09:22;8.90;92.60
45491;DHT22;31237;45.586;13.782;2023-11-19T04:11:48;8.90;92.50
45491;DHT22;31237;45.586;13.782;2023-11-19T04:14:14;8.90;92.50
45491;DHT22;31237;45.586;13.782;2023-11-19T04:16:40;8.90;92.50
45491;DHT22;31237;45.586;13.782;2023-11-19T04:19:06;9.00;92.50
45491;DHT22;31237;45.586;13.782;2023-11-19T04:21:32;9.00;92.50
45491;DHT22;31237;45.586;13.782;2023-11-19T04:23:58;8.90;92.50
45491;DHT22;31237;45.586;13.782;2023-11-19T04:26:24;9.00;92.50
45491;DHT22;31237;45.586;13.782;2023-11-19T04:28:49;9.00;92.50
45491;DHT22;31237;45.586;13.782;2023-11-19T04:31:15;9.00;92.50
45491;DHT22;31237;45.586;13.782;2023-11-19T04:33:42;9.00;92.50
45491;DHT22;31237;45.586;13.782;2023-11-19T04:36:09;9.00;92.60
45491;DHT22;31237;45.586;13.782;2023-11-19T04:38:35;9.00;92.60
45491;DHT22;31237;45.586;13.782;2023-11-19T04:41:01;9.00;92.60
45491;DHT22;31237;45.586;13.782;2023-11-19T04:43:27;9.00;92.70
45491;DHT22;31237;45.586;13.782;2023-11-19T04:45:52;9.00;92.70
45491;DHT22;31237;45.586;13.782;2023-11-19T04:48:18;9.00;92.70
45491;DHT22;31237;45.586;13.782;2023-11-19T04:50:43;9.00;92.80
45491;DHT22;31237;45.586;13.782;2023-11-19T04:53:09;9.10;92.80
45491;DHT22;31237;45.586;13.782;2023-11-19T04:55:35;9.10;92.90
45491;DHT22;31237;45.586;13.782;2023-11-19T04:58:01;9.10;92.90
45491;DHT22;31237;45.586;13.782;2023-11-19T05:00:26;9.10;92.90
45491;DHT22;31237;45.586;13.782;2023-11-19T05:02:52;9.10;92.90
45491;DHT22;31237;45.586;13.782;2023-11-19T05:05:18;9.10;92.90
45491;DHT22;31237;45.586;13.782;2023-11-19T05:07:44;9.10;92.90
45491;DHT22;31237;45.586;13.782;2023-11-19T05:10:09;9.10;93.00
45491;DHT22;31237;45.586;13.782;2023-11-19T05:12:35;9.10;93.00
45491;DHT22;31237;45.586;13.782;2023-11-19T05:15:01;9.10;93.00
45491;DHT22;31237;45.586;13.782;2023-11-19T05:17:26;9.10;93.00
45491;DHT22;31237;45.586;13.782;2023-11-19T05:19:52;9.10;93.10
45491;DHT22;31237;45.586;13.782;2023-11-19T05:22:18;9.00;93.10
45491;DHT22;31237;45.586;13.782;2023-11-19T05:24:44;9.10;93.10
45491;DHT22;31237;45.586;13.782;2023-11-19T05:27:09;9.00;93.20
45491;DHT22;31237;45.586;13.782;2023-11-19T05:29:37;9.00;93.20
45491;DHT22;31237;45.586;13.782;2023-11-19T05:32:05;9.00;93.30
45491;DHT22;31237;45.586;13.782;2023-11-19T05:34:30;9.00;93.30
45491;DHT22;31237;45.586;13.782;2023-11-19T05:36:56;9.00;93.40
45491;DHT22;31237;45.586;13.782;2023-11-19T05:39:23;8.90;93.40
45491;DHT22;31237;45.586;13.782;2023-11-19T05:41:49;9.00;93.50
45491;DHT22;31237;45.586;13.782;2023-11-19T05:44:15;9.00;93.60
45491;DHT22;31237;45.586;13.782;2023-11-19T05:46:42;9.00;93.70
45491;DHT22;31237;45.586;13.782;2023-11-19T05:49:11;9.00;93.70
45491;DHT22;31237;45.586;13.782;2023-11-19T05:51:38;9.00;93.80
45491;DHT22;31237;45.586;13.782;2023-11-19T05:54:08;9.00;93.90
45491;DHT22;31237;45.586;13.782;2023-11-19T05:56:34;9.00;93.90
45491;DHT22;31237;45.586;13.782;2023-11-19T05:59:00;9.10;94.00
45491;DHT22;31237;45.586;13.782;2023-11-19T06:01:26;9.10;94.00
45491;DHT22;31237;45.586;13.782;2023-11-19T06:03:52;9.10;94.00
45491;DHT22;31237;45.586;13.782;2023-11-19T06:06:18;9.10;94.00
45491;DHT22;31237;45.586;13.782;2023-11-19T06:08:44;9.10;94.10
45491;DHT22;31237;45.586;13.782;2023-11-19T06:11:11;9.10;94.10
45491;DHT22;31237;45.586;13.782;2023-11-19T06:13:44;9.10;94.10
45491;DHT22;31237;45.586;13.782;2023-11-19T06:16:09;9.10;94.20
45491;DHT22;31237;45.586;13.782;2023-11-19T06:18:36;9.10;94.20
45491;DHT22;31237;45.586;13.782;2023-11-19T06:21:02;9.20;94.20
45491;DHT22;31237;45.586;13.782;2023-11-19T06:23:28;9.10;94.20
45491;DHT22;31237;45.586;13.782;2023-11-19T06:25:54;9.20;94.30
45491;DHT22;31237;45.586;13.782;2023-11-19T06:28:19;9.20;94.20
45491;DHT22;31237;45.586;13.782;2023-11-19T06:30:45;9.20;94.30
45491;DHT22;31237;45.586;13.782;2023-11-19T06:33:14;9.20;94.30
45491;DHT22;31237;45.586;13.782;2023-11-19T06:35:40;9.20;94.30
45491;DHT22;31237;45.586;13.782;2023-11-19T06:38:06;9.10;94.40
45491;DHT22;31237;45.586;13.782;2023-11-19T06:40:32;9.10;94.40
45491;DHT22;31237;45.586;13.782;2023-11-19T06:42:58;9.20;94.50
45491;DHT22;31237;45.586;13.782;2023-11-19T06:45:24;9.20;94.50
45491;DHT22;31237;45.586;13.782;2023-11-19T06:47:50;9.10;94.60
45491;DHT22;31237;45.586;13.782;2023-11-19T06:50:16;9.20;94.70
45491;DHT22;31237;45.586;13.782;2023-11-19T06:52:41;9.20;94.70
45491;DHT22;31237;45.586;13.782;2023-11-19T06:55:07;9.20;94.80
45491;DHT22;31237;45.586;13.782;2023-11-19T06:57:33;9.20;94.80
45491;DHT22;31237;45.586;13.782;2023-11-19T06:59:59;9.20;94.90
45491;DHT22;31237;45.586;13.782;2023-11-19T07:02:25;9.20;94.90
45491;DHT22;31237;45.586;13.782;2023-11-19T07:04:51;9.20;94.90
45491;DHT22;31237;45.586;13.782;2023-11-19T07:07:17;9.20;95.00
45491;DHT22;31237;45.586;13.782;2023-11-19T07:09:42;9.20;95.10
45491;DHT22;31237;45.586;13.782;2023-11-19T07:12:08;9.30;95.10
45491;DHT22;31237;45.586;13.782;2023-11-19T07:14:34;9.30;95.50
45491;DHT22;31237;45.586;13.782;2023-11-19T07:17:00;9.30;95.30
45491;DHT22;31237;45.586;13.782;2023-11-19T07:19:26;9.30;95.30
45491;DHT22;31237;45.586;13.782;2023-11-19T07:21:52;9.40;95.30
45491;DHT22;31237;45.586;13.782;2023-11-19T07:24:20;9.40;95.40
45491;DHT22;31237;45.586;13.782;2023-11-19T07:26:47;9.40;95.50
45491;DHT22;31237;45.586;13.782;2023-11-19T07:29:13;9.50;95.50
45491;DHT22;31237;45.586;13.782;2023-11-19T07:31:40;9.50;95.50
45491;DHT22;31237;45.586;13.782;2023-11-19T07:34:06;9.50;95.60
45491;DHT22;31237;45.586;13.782;2023-11-19T07:36:32;9.60;95.70
45491;DHT22;31237;45.586;13.782;2023-11-19T07:38:58;9.60;95.70
45491;DHT22;31237;45.586;13.782;2023-11-19T07:41:24;9.60;95.70
45491;DHT22;31237;45.586;13.782;2023-11-19T07:43:51;9.70;95.80
45491;DHT22;31237;45.586;13.782;2023-11-19T07:46:18;9.70;95.80
45491;DHT22;31237;45.586;13.782;2023-11-19T07:48:46;9.80;95.90
45491;DHT22;31237;45.586;13.782;2023-11-19T07:51:15;9.80;95.90
45491;DHT22;31237;45.586;13.782;2023-11-19T07:53:41;9.90;95.90
45491;DHT22;31237;45.586;13.782;2023-11-19T07:56:10;9.90;95.90
45491;DHT22;31237;45.586;13.782;2023-11-19T07:58:36;10.00;95.90
45491;DHT22;31237;45.586;13.782;2023-11-19T08:01:02;10.00;95.90
45491;DHT22;31237;45.586;13.782;2023-11-19T08:03:28;10.10;95.90
45491;DHT22;31237;45.586;13.782;2023-11-19T08:05:57;10.10;95.90
45491;DHT22;31237;45.586;13.782;2023-11-19T08:08:23;10.10;95.90
45491;DHT22;31237;45.586;13.782;2023-11-19T08:10:49;10.10;95.80
45491;DHT22;31237;45.586;13.782;2023-11-19T08:13:17;10.10;95.80
45491;DHT22;31237;45.586;13.782;2023-11-19T08:15:43;10.10;95.80
45491;DHT22;31237;45.586;13.782;2023-11-19T08:18:09;10.10;95.90
45491;DHT22;31237;45.586;13.782;2023-11-19T08:20:34;10.20;95.90
45491;DHT22;31237;45.586;13.782;2023-11-19T08:23:02;10.20;96.00
45491;DHT22;31237;45.586;13.782;2023-11-19T08:25:29;10.20;96.10
45491;DHT22;31237;45.586;13.782;2023-11-19T08:27:54;10.20;96.10
45491;DHT22;31237;45.586;13.782;2023-11-19T08:30:20;10.30;96.20
45491;DHT22;31237;45.586;13.782;2023-11-19T08:32:46;10.40;96.30
45491;DHT22;31237;45.586;13.782;2023-11-19T08:35:11;10.50;96.30
45491;DHT22;31237;45.586;13.782;2023-11-19T08:37:37;10.50;96.30
45491;DHT22;31237;45.586;13.782;2023-11-19T08:40:04;10.60;96.50
45491;DHT22;31237;45.586;13.782;2023-11-19T08:42:30;10.70;96.30
45491;DHT22;31237;45.586;13.782;2023-11-19T08:44:56;10.80;96.30
45491;DHT22;31237;45.586;13.782;2023-11-19T08:47:22;10.80;96.20
45491;DHT22;31237;45.586;13.782;2023-11-19T08:49:51;10.90;96.20
45491;DHT22;31237;45.586;13.782;2023-11-19T08:52:20;11.00;96.30
45491;DHT22;31237;45.586;13.782;2023-11-19T08:54:46;11.10;96.30
45491;DHT22;31237;45.586;13.782;2023-11-19T08:57:12;11.10;96.30
45491;DHT22;31237;45.586;13.782;2023-11-19T08:59:37;11.20;96.30
45491;DHT22;31237;45.586;13.782;2023-11-19T09:02:07;11.30;96.20
45491;DHT22;31237;45.586;13.782;2023-11-19T09:04:33;11.30;96.20
45491;DHT22;31237;45.586;13.782;2023-11-19T09:06:59;11.40;96.10
45491;DHT22;31237;45.586;13.782;2023-11-19T09:09:25;11.40;96.10
45491;DHT22;31237;45.586;13.782;2023-11-19T09:11:51;11.50;96.20
45491;DHT22;31237;45.586;13.782;2023-11-19T09:14:16;11.50;96.10
45491;DHT22;31237;45.586;13.782;2023-11-19T09:16:43;11.60;96.20
45491;DHT22;31237;45.586;13.782;2023-11-19T09:19:09;11.60;96.30
45491;DHT22;31237;45.586;13.782;2023-11-19T09:21:35;11.70;96.30
45491;DHT22;31237;45.586;13.782;2023-11-19T09:24:04;11.80;96.40
45491;DHT22;31237;45.586;13.782;2023-11-19T09:26:30;11.90;96.40
45491;DHT22;31237;45.586;13.782;2023-11-19T09:28:56;11.90;96.40
45491;DHT22;31237;45.586;13.782;2023-11-19T09:31:21;12.00;96.40
45491;DHT22;31237;45.586;13.782;2023-11-19T09:33:47;12.10;96.40
45491;DHT22;31237;45.586;13.782;2023-11-19T09:36:13;12.10;96.40
45491;DHT22;31237;45.586;13.782;2023-11-19T09:38:45;12.10;96.30
45491;DHT22;31237;45.586;13.782;2023-11-19T09:41:11;12.30;96.40
45491;DHT22;31237;45.586;13.782;2023-11-19T09:43:42;12.30;96.40
45491;DHT22;31237;45.586;13.782;2023-11-19T09:46:13;12.40;96.40
45491;DHT22;31237;45.586;13.782;2023-11-19T09:48:40;12.40;96.60
45491;DHT22;31237;45.586;13.782;2023-11-19T09:51:07;12.50;96.40
45491;DHT22;31237;45.586;13.782;2023-11-19T09:53:34;12.50;96.40
45491;DHT22;31237;45.586;13.782;2023-11-19T09:56:00;12.50;96.40
45491;DHT22;31237;45.586;13.782;2023-11-19T09:58:29;12.60;96.60
45491;DHT22;31237;45.586;13.782;2023-11-19T10:00:55;12.60;96.60
45491;DHT22;31237;45.586;13.782;2023-11-19T10:03:22;12.70;96.60
45491;DHT22;31237;45.586;13.782;2023-11-19T10:05:48;12.80;96.60
45491;DHT22;31237;45.586;13.782;2023-11-19T10:08:14;12.80;96.60
45491;DHT22;31237;45.586;13.782;2023-11-19T10:10:41;12.90;96.60
45491;DHT22;31237;45.586;13.782;2023-11-19T10:13:07;12.90;96.50
45491;DHT22;31237;45.586;13.782;2023-11-19T10:15:37;13.00;96.50
45491;DHT22;31237;45.586;13.782;2023-11-19T10:18:03;13.00;96.50
45491;DHT22;31237;45.586;13.782;2023-11-19T10:20:40;13.00;96.50
45491;DHT22;31237;45.586;13.782;2023-11-19T10:23:06;13.10;96.50
45491;DHT22;31237;45.586;13.782;2023-11-19T10:25:32;13.10;96.50
45491;DHT22;31237;45.586;13.782;2023-11-19T10:27:59;13.10;96.50
45491;DHT22;31237;45.586;13.782;2023-11-19T10:30:27;13.10;96.50
45491;DHT22;31237;45.586;13.782;2023-11-19T10:33:10;13.20;96.50
45491;DHT22;31237;45.586;13.782;2023-11-19T10:35:57;13.20;96.40
45491;DHT22;31237;45.586;13.782;2023-11-19T10:38:23;13.20;96.40
45491;DHT22;31237;45.586;13.782;2023-11-19T10:40:50;13.30;96.40
45491;DHT22;31237;45.586;13.782;2023-11-19T10:43:17;13.30;96.30
45491;DHT22;31237;45.586;13.782;2023-11-19T10:45:43;13.40;96.20
45491;DHT22;31237;45.586;13.782;2023-11-19T10:48:09;13.40;96.10
45491;DHT22;31237;45.586;13.782;2023-11-19T10:50:39;13.50;95.70
45491;DHT22;31237;45.586;13.782;2023-11-19T10:53:06;13.50;95.40
45491;DHT22;31237;45.586;13.782;2023-11-19T10:55:35;13.50;95.30
45491;DHT22;31237;45.586;13.782;2023-11-19T10:58:02;13.60;95.30
45491;DHT22;31237;45.586;13.782;2023-11-19T11:00:29;13.60;95.30
45491;DHT22;31237;45.586;13.782;2023-11-19T11:03:02;13.70;95.30
45491;DHT22;31237;45.586;13.782;2023-11-19T11:05:32;13.80;95.20
45491;DHT22;31237;45.586;13.782;2023-11-19T11:08:01;14.00;95.10
45491;DHT22;31237;45.586;13.782;2023-11-19T11:10:28;14.10;94.90
45491;DHT22;31237;45.586;13.782;2023-11-19T11:12:59;14.10;94.60
45491;DHT22;31237;45.586;13.782;2023-11-19T11:15:27;14.20;94.80
45491;DHT22;31237;45.586;13.782;2023-11-19T11:18:00;14.20;94.50
45491;DHT22;31237;45.586;13.782;2023-11-19T11:20:33;14.20;94.50
45491;DHT22;31237;45.586;13.782;2023-11-19T11:29:14;14.20;93.80
45491;DHT22;31237;45.586;13.782;2023-11-19T11:32:16;14.10;93.80
45491;DHT22;31237;45.586;13.782;2023-11-19T11:37:46;13.90;94.00
45491;DHT22;31237;45.586;13.782;2023-11-19T11:40:17;13.80;94.10
45491;DHT22;31237;45.586;13.782;2023-11-19T11:42:46;13.80;94.20
45491;DHT22;31237;45.586;13.782;2023-11-19T11:45:14;13.70;94.20
45491;DHT22;31237;45.586;13.782;2023-11-19T11:50:15;13.70;94.40
45491;DHT22;31237;45.586;13.782;2023-11-19T11:57:44;13.60;94.10
45491;DHT22;31237;45.586;13.782;2023-11-19T12:00:11;13.60;94.40
45491;DHT22;31237;45.586;13.782;2023-11-19T12:02:46;13.60;94.30
45491;DHT22;31237;45.586;13.782;2023-11-19T12:05:14;13.60;94.30
45491;DHT22;31237;45.586;13.782;2023-11-19T12:07:40;13.60;94.30
45491;DHT22;31237;45.586;13.782;2023-11-19T12:10:07;13.60;94.30
45491;DHT22;31237;45.586;13.782;2023-11-19T12:12:33;13.60;94.30
45491;DHT22;31237;45.586;13.782;2023-11-19T12:15:08;13.60;94.30
45491;DHT22;31237;45.586;13.782;2023-11-19T12:17:42;13.60;94.20
45491;DHT22;31237;45.586;13.782;2023-11-19T12:20:11;13.70;94.10
45491;DHT22;31237;45.586;13.782;2023-11-19T12:22:38;13.70;94.00
45491;DHT22;31237;45.586;13.782;2023-11-19T12:25:09;13.70;94.00
45491;DHT22;31237;45.586;13.782;2023-11-19T12:27:46;13.70;93.90
45491;DHT22;31237;45.586;13.782;2023-11-19T12:30:12;13.70;93.90
45491;DHT22;31237;45.586;13.782;2023-11-19T12:32:43;13.70;93.90
45491;DHT22;31237;45.586;13.782;2023-11-19T12:35:10;13.70;93.90
45491;DHT22;31237;45.586;13.782;2023-11-19T12:37:57;13.70;93.90
45491;DHT22;31237;45.586;13.782;2023-11-19T12:40:24;13.70;93.80
45491;DHT22;31237;45.586;13.782;2023-11-19T12:42:52;13.70;93.80
45491;DHT22;31237;45.586;13.782;2023-11-19T12:45:21;13.70;93.90
45491;DHT22;31237;45.586;13.782;2023-11-19T12:47:49;13.70;94.20
45491;DHT22;31237;45.586;13.782;2023-11-19T12:50:16;13.80;93.80
45491;DHT22;31237;45.586;13.782;2023-11-19T12:52:55;13.90;94.60
45491;DHT22;31237;45.586;13.782;2023-11-19T12:57:20;16.10;99.90
45491;DHT22;31237;45.586;13.782;2023-11-19T12:59:55;15.40;99.90
45491;DHT22;31237;45.586;13.782;2023-11-19T13:05:27;14.70;99.90
45491;DHT22;31237;45.586;13.782;2023-11-19T13:08:08;14.40;99.90
45491;DHT22;31237;45.586;13.782;2023-11-19T13:13:16;13.90;99.90
45491;DHT22;31237;45.586;13.782;2023-11-19T13:15:42;13.70;99.90
45491;DHT22;31237;45.586;13.782;2023-11-19T13:18:10;13.50;99.90
45491;DHT22;31237;45.586;13.782;2023-11-19T13:20:36;13.40;99.90
45491;DHT22;31237;45.586;13.782;2023-11-19T13:23:04;13.30;99.90
45491;DHT22;31237;45.586;13.782;2023-11-19T13:25:31;13.30;99.90
45491;DHT22;31237;45.586;13.782;2023-11-19T13:27:58;13.40;99.90
45491;DHT22;31237;45.586;13.782;2023-11-19T13:30:25;13.50;99.90
45491;DHT22;31237;45.586;13.782;2023-11-19T13:33:45;13.60;99.90
45491;DHT22;31237;45.586;13.782;2023-11-19T13:36:11;13.60;99.90
45491;DHT22;31237;45.586;13.782;2023-11-19T13:38:37;13.50;99.90
45491;DHT22;31237;45.586;13.782;2023-11-19T13:41:03;13.40;99.90
45491;DHT22;31237;45.586;13.782;2023-11-19T13:43:34;13.30;99.90
45491;DHT22;31237;45.586;13.782;2023-11-19T13:46:00;13.20;99.90
45491;DHT22;31237;45.586;13.782;2023-11-19T13:50:13;13.10;99.90
45491;DHT22;31237;45.586;13.782;2023-11-19T13:52:40;13.00;99.90
45491;DHT22;31237;45.586;13.782;2023-11-19T13:55:08;12.90;99.90
45491;DHT22;31237;45.586;13.782;2023-11-19T13:57:40;12.80;99.90
45491;DHT22;31237;45.586;13.782;2023-11-19T14:00:08;12.80;99.90
45491;DHT22;31237;45.586;13.782;2023-11-19T14:02:47;12.70;99.90
45491;DHT22;31237;45.586;13.782;2023-11-19T14:05:14;12.70;99.90
45491;DHT22;31237;45.586;13.782;2023-11-19T14:07:42;12.60;99.90
45491;DHT22;31237;45.586;13.782;2023-11-19T14:10:10;12.60;99.90
45491;DHT22;31237;45.586;13.782;2023-11-19T14:12:39;12.50;99.90
45491;DHT22;31237;45.586;13.782;2023-11-19T14:15:06;12.50;99.90
45491;DHT22;31237;45.586;13.782;2023-11-19T14:17:33;12.40;99.90
45491;DHT22;31237;45.586;13.782;2023-11-19T14:19:59;12.40;99.90
45491;DHT22;31237;45.586;13.782;2023-11-19T14:22:25;12.40;99.90
45491;DHT22;31237;45.586;13.782;2023-11-19T14:24:51;12.30;99.90
45491;DHT22;31237;45.586;13.782;2023-11-19T14:27:16;12.30;99.90
45491;DHT22;31237;45.586;13.782;2023-11-19T14:29:43;12.20;99.90
45491;DHT22;31237;45.586;13.782;2023-11-19T14:32:11;12.20;99.90
45491;DHT22;31237;45.586;13.782;2023-11-19T14:34:36;12.10;99.90
45491;DHT22;31237;45.586;13.782;2023-11-19T14:37:02;12.10;99.90
45491;DHT22;31237;45.586;13.782;2023-11-19T14:39:28;12.00;99.90
45491;DHT22;31237;45.586;13.782;2023-11-19T14:41:57;12.00;99.90
45491;DHT22;31237;45.586;13.782;2023-11-19T14:44:29;11.90;99.90
45491;DHT22;31237;45.586;13.782;2023-11-19T14:46:55;11.90;99.90
45491;DHT22;31237;45.586;13.782;2023-11-19T14:49:20;11.90;99.90
45491;DHT22;31237;45.586;13.782;2023-11-19T14:51:46;11.80;99.90
45491;DHT22;31237;45.586;13.782;2023-11-19T14:54:12;11.70;99.90
45491;DHT22;31237;45.586;13.782;2023-11-19T14:56:40;11.60;99.90
45491;DHT22;31237;45.586;13.782;2023-11-19T14:59:06;11.60;99.90
45491;DHT22;31237;45.586;13.782;2023-11-19T15:01:32;11.50;99.90
45491;DHT22;31237;45.586;13.782;2023-11-19T15:03:58;11.50;99.90
45491;DHT22;31237;45.586;13.782;2023-11-19T15:06:24;11.40;99.90
45491;DHT22;31237;45.586;13.782;2023-11-19T15:08:52;11.40;99.90
45491;DHT22;31237;45.586;13.782;2023-11-19T15:11:18;11.30;99.90
45491;DHT22;31237;45.586;13.782;2023-11-19T15:13:44;11.20;99.90
45491;DHT22;31237;45.586;13.782;2023-11-19T15:16:10;11.20;99.90
45491;DHT22;31237;45.586;13.782;2023-11-19T15:18:40;11.10;99.90
45491;DHT22;31237;45.586;13.782;2023-11-19T15:21:06;11.00;99.90
45491;DHT22;31237;45.586;13.782;2023-11-19T15:23:33;11.00;99.90
45491;DHT22;31237;45.586;13.782;2023-11-19T15:25:59;10.90;99.90
45491;DHT22;31237;45.586;13.782;2023-11-19T15:28:25;10.90;99.90
45491;DHT22;31237;45.586;13.782;2023-11-19T15:30:50;10.80;99.90
45491;DHT22;31237;45.586;13.782;2023-11-19T15:33:16;10.80;99.90
45491;DHT22;31237;45.586;13.782;2023-11-19T15:35:42;10.70;99.90
45491;DHT22;31237;45.586;13.782;2023-11-19T15:38:07;10.70;99.90
45491;DHT22;31237;45.586;13.782;2023-11-19T15:40:35;10.60;99.90
45491;DHT22;31237;45.586;13.782;2023-11-19T15:43:03;10.50;99.90
45491;DHT22;31237;45.586;13.782;2023-11-19T15:45:29;10.40;99.90
45491;DHT22;31237;45.586;13.782;2023-11-19T15:47:55;10.40;99.90
45491;DHT22;31237;45.586;13.782;2023-11-19T15:50:21;10.40;99.90